De Kalb, Mississippi
Current Conditions -  °F | °C
As of 9:56 AM on Wednesday 22 Oct 2014 (Local Time) from KNMM Reporting Station
Clear Clear  
Wind Chill: 61°   Ceiling: Unl
Heat Index: 61°   Visibility: 10mi
Dew Point: 49°   Wind: 9mph
Humidity: 64%   Direction: 60°ENE
Pressure: 30.18"   Gusts: NA
Location:  32.77°N, 88.65°W
Report Text: KNMM 221456Z 06008KT 10SM CLR 16/09 A3018 RMK AO2 SLP229 T01610094 51019 $
Loading
Personal Weather Stations






























Interactive Weather Map
Tropical Storm Tracking
New forecast layout! Learn more

10-Day Weather Forecast

Advertisements
Track Severe Weather on mobile